This is the latest recevied weather packets stored in our database for station/object MB7UEL. If no packets are shown the sender has not sent any weather packets the latest 1 day(s).
| Time | Temp. | Humidity | Pressure | Rain* | Wind** | Luminosity | Snow |
|---|---|---|---|---|---|---|---|
| 1778018705 | 7.78° C | - | 1020 hPa | 0 mm | 5.81 m/s, 69° | - | - |
| 1778016905 | 7.78° C | - | 1020 hPa | 0 mm | 5.81 m/s, 76° | - | - |
| 1778015105 | 7.78° C | - | 1020 hPa | 0 mm | 5.81 m/s, 76° | - | - |
| 1778013306 | 7.22° C | - | 1020 hPa | 0 mm | 5.36 m/s, 73° | - | - |
| 1778011506 | 7.22° C | - | 1020 hPa | 0 mm | 5.36 m/s, 73° | - | - |
| 1778009706 | 7.78° C | - | 1020 hPa | 0 mm | 5.36 m/s, 71° | - | - |
| 1778007906 | 7.78° C | - | 1020 hPa | 0 mm | 5.36 m/s, 71° | - | - |
| 1778006106 | 7.22° C | - | 1019 hPa | 0 mm | 6.26 m/s, 69° | - | - |
| 1778004306 | 7.22° C | - | 1019 hPa | 0 mm | 6.71 m/s, 67° | - | - |
| 1778002506 | 7.22° C | - | 1019 hPa | 0 mm | 7.15 m/s, 64° | - | - |
| 1778000706 | 7.22° C | - | 1019 hPa | 0 mm | 7.15 m/s, 64° | - | - |
| 1777998905 | 7.78° C | - | 1019 hPa | 0 mm | 7.15 m/s, 60° | - | - |
| 1777997105 | 7.78° C | - | 1019 hPa | 0 mm | 7.15 m/s, 60° | - | - |
| 1777995305 | 7.78° C | - | 1019 hPa | 0 mm | 7.15 m/s, 55° | - | - |
| 1777993505 | 7.78° C | - | 1019 hPa | 0 mm | 7.15 m/s, 55° | - | - |
| 1777991705 | 7.78° C | - | 1019 hPa | 0 mm | 7.15 m/s, 53° | - | - |
| 1777989905 | 7.78° C | - | 1019 hPa | 0 mm | 7.15 m/s, 53° | - | - |
| 1777988105 | 7.78° C | - | 1019 hPa | 0 mm | 6.71 m/s, 46° | - | - |
| 1777986305 | 7.78° C | - | 1019 hPa | 0 mm | 6.71 m/s, 46° | - | - |
| 1777984506 | 8.33° C | - | 1018 hPa | 0 mm | 7.6 m/s, 35° | - | - |
| 1777982706 | 7.78° C | - | 1019 hPa | 0 mm | 7.6 m/s, 36° | - | - |
| 1777980906 | 7.78° C | - | 1018 hPa | 0 mm | 8.05 m/s, 32° | - | - |
| 1777979106 | 7.78° C | - | 1018 hPa | 0 mm | 8.05 m/s, 32° | - | - |
| 1777977306 | 8.33° C | - | 1018 hPa | 0 mm | 6.26 m/s, 43° | - | - |
* Rain latest hour (hover to see other rain measurements)
** Current wind speed in m/s (hover to see current wind gust speed)